• Join FlightAware (Why Join?)
  • Login
  • US Flag 
08:44AM EDT


 

Airport Tracker/Info


-or-


 

Live Flight TrackerFlight Track Log ✈ CEY413 ✈ 30-Apr-2013 ✈ MTPP / PAP - TKPK / SKB

Flight Track Log - Related Links

Times and Time Zones

All times are in EDT time to prevent confusion due to time zone crossing. See the CEY413 flight status page for this flight to view local times or setup timezone preferences in your user account.

Time Position Orientation Groundspeed Altitude Reporting Facility
EDT Latitude Longitude Course Direction KTS MPH feet Rate Location/Type
06:53PM 18.3333 -69.6167 96° East 380 437 32,200  Level San Juan Center
06:54PM 18.3167 -69.4833 97° East 390 449 32,300 180 Climbing San Juan Center
06:55PM 18.3000 -69.3833 100° East 390 449 32,600 300 Climbing San Juan Center
06:56PM 18.2833 -69.2667 99° East 380 437 33,000 180 Climbing San Juan Center
06:57PM 18.2833 -69.1500 90° East 390 449 33,000  Level San Juan Center
06:58PM 18.1993 -69.0036 96° East  Level Estimated
06:58PM 18.2833 -69.0500 90° East 390 449 33,000  Level San Juan Center
06:59PM 18.2833 -68.9333 90° East 410 472 33,000  Level San Juan Center
07:00PM 18.2667 -68.8167 99° East 410 472 33,000  Level San Juan Center
07:01PM 18.2500 -68.7000 99° East 400 460 33,000  Level San Juan Center
07:02PM 18.2500 -68.5833 90° East 410 472 33,000  Level San Juan Center
07:03PM 18.2333 -68.4500 97° East 410 472 33,000  Level San Juan Center
07:04PM 18.2333 -68.3333 90° East 410 472 33,000  Level San Juan Center
07:05PM 18.2167 -68.2167 99° East 410 472 33,000  Level San Juan Center
07:06PM 18.2167 -68.1000 90° East 400 460 33,000  Level San Juan Center
07:07PM 18.2000 -67.9833 99° East 410 472 33,000  Level San Juan Center
07:08PM 18.2000 -67.8667 90° East 400 460 33,000  Level San Juan Center
07:09PM 18.1833 -67.7333 97° East 410 472 33,000  Level San Juan Center
07:10PM 18.1500 -67.6167 107° East 410 472 33,000  Level San Juan Center
07:11PM 18.1333 -67.4833 97° East 410 472 33,000  Level San Juan Center
07:12PM 18.1167 -67.3667 99° East 410 472 33,000  Level San Juan Center
07:13PM 18.0833 -67.2500 107° East 410 472 33,000  Level San Juan Center
07:14PM 18.0667 -67.1167 97° East 420 483 33,000  Level San Juan Center
07:15PM 18.0500 -67.0000 99° East 410 472 33,000  Level San Juan Center
07:16PM 18.0333 -66.8833 99° East 410 472 33,000  Level San Juan Center
07:17PM 18.0000 -66.7667 107° East 410 472 33,000  Level San Juan Center
07:18PM 17.9833 -66.6500 99° East 420 483 33,000  Level San Juan Center
07:19PM 17.9667 -66.5333 99° East 420 483 33,000  Level San Juan Center
07:20PM 17.9500 -66.4000 97° East 420 483 33,000  Level San Juan Center
07:21PM 17.9333 -66.2833 99° East 410 472 33,000  Level San Juan Center
07:22PM 17.9167 -66.1667 99° East 420 483 33,000  Level San Juan Center
07:23PM 17.8833 -66.0500 107° East 420 483 33,000  Level San Juan Center
07:24PM 17.8667 -65.9167 97° East 410 472 33,000  Level San Juan Center
07:25PM 17.8500 -65.8167 100° East 410 472 33,000  Level San Juan Center
07:26PM 17.8333 -65.6833 97° East 420 483 33,000  Level San Juan Center
07:27PM 17.8000 -65.5667 107° East 420 483 33,000  Level San Juan Center
07:28PM 17.7833 -65.4500 99° East 420 483 33,000  Level San Juan Center
07:29PM 17.7667 -65.3333 99° East 420 483 33,000  Level San Juan Center
07:30PM 17.7500 -65.2000 97° East 420 483 33,000  Level San Juan Center
07:31PM 17.7167 -65.0833 107° East 420 483 33,000 -60 Level San Juan Center
07:32PM 17.7000 -64.9667 99° East 420 483 32,900 -60 Descending San Juan Center
07:33PM 17.6833 -64.8500 99° East 420 483 32,900 -120 Level San Juan Center
07:34PM 17.6500 -64.7333 107° East 420 483 32,700 -1,080 Descending San Juan Center
07:35PM 17.6333 -64.6000 97° East 440 506 30,800 -1,800 Descending San Juan Center
07:36PM 17.6167 -64.4667 97° East 450 518 29,100 -1,740 Descending San Juan Center
07:37PM 17.5833 -64.3333 105° East 450 518 27,300 -1,800 Descending San Juan Center
07:38PM 17.5667 -64.2167 99° East 420 483 25,500 -1,800 Descending San Juan Center
07:39PM 17.5500 -64.1000 99° East 410 472 23,700 -1,680 Descending San Juan Center
07:40PM 17.5333 -63.9833 99° East 390 449 22,200 -1,500 Descending San Juan Center
07:41PM 17.5000 -63.8833 109° East 370 426 20,700 -1,620 Descending San Juan Center
07:42PM 17.4833 -63.7667 99° East 370 426 19,000 -1,860 Descending San Juan Center
07:43PM 17.4667 -63.6667 100° East 370 426 17,000 -1,980 Descending San Juan Center
07:44PM 17.4500 -63.5667 100° East 330 380 15,100 -1,980 Descending San Juan Center
07:45PM 17.4333 -63.4833 102° East 290 334 13,100 -2,040 Descending San Juan Center
07:46PM 17.4167 -63.4000 102° East 310 357 11,000 -1,980 Descending San Juan Center
07:47PM 17.4000 -63.3167 102° East 290 334 9,200 -1,800 Descending San Juan Center
07:48PM 17.3833 -63.2333 102° East 280 322 7,400 -1,620 Descending San Juan Center
07:49PM 17.3667 -63.1667 105° East 250 288 6,000 -1,380 Descending San Juan Center
07:51PM 17.3445 -62.9891 118° Southeast  Level FlightAware Approximate
07:58PM 17.3112 -62.7187 North  Level Estimated
07:59PM 17.3112 -62.7187 North  Level Estimated
08:00PM 17.3112 -62.7187 North  Level Estimated
08:01PM 17.3112 -62.7187 North  Level Estimated
08:02PM 17.3112 -62.7187 North  Level Estimated
08:03PM 17.3112 -62.7187 North  Level Estimated
08:04PM 17.3112 -62.7187 North  Level Estimated
08:05PM 17.3112 -62.7187 North  Level Estimated
08:06PM 17.3112 -62.7187 North  Level Estimated
08:07PM 17.3112 -62.7187 North  Level Estimated
08:08PM 17.3112 -62.7187 North  Level Estimated
08:09PM 17.3112 -62.7187 North  Level Estimated
08:10PM 17.3112 -62.7187 North  Level Estimated
08:11PM 17.3112 -62.7187 North  Level Estimated
08:12PM 17.3112 -62.7187 North  Level Estimated
08:13PM 17.3112 -62.7187 North  Level Estimated
08:14PM 17.3112 -62.7187 North  Level Estimated
08:15PM 17.3112 -62.7187 North  Level Estimated
08:16PM 17.3112 -62.7187 North  Level Estimated
08:17PM 17.3112 -62.7187 North  Level Estimated